createdAt,value
2017-10-14T00:00:05.412Z,97.85
2017-10-14T00:02:32.928Z,97.59
2017-10-14T00:05:00.447Z,97.28
2017-10-14T00:07:27.962Z,96.95
2017-10-14T00:09:55.470Z,96.77
2017-10-14T00:12:22.983Z,96.50
2017-10-14T00:14:50.487Z,96.39
2017-10-14T00:17:18.082Z,96.89
2017-10-14T00:19:45.643Z,96.84
2017-10-14T00:22:13.155Z,97.29
2017-10-14T00:24:40.683Z,98.03
2017-10-14T00:27:08.185Z,96.82
2017-10-14T00:29:35.692Z,96.78
2017-10-14T00:32:03.216Z,97.10
2017-10-14T00:34:30.717Z,97.25
2017-10-14T00:36:58.211Z,97.39
2017-10-14T00:39:25.725Z,96.96
2017-10-14T00:41:53.241Z,95.58
2017-10-14T00:44:20.747Z,96.35
2017-10-14T00:46:48.254Z,97.18
2017-10-14T00:49:15.766Z,97.40
2017-10-14T00:51:43.276Z,97.96
2017-10-14T00:54:10.786Z,97.12
2017-10-14T00:56:38.297Z,97.02
2017-10-14T00:59:05.792Z,97.04
2017-10-14T01:01:33.312Z,97.31
2017-10-14T01:04:00.847Z,98.09
2017-10-14T01:06:28.376Z,98.52
2017-10-14T01:08:55.886Z,98.06
2017-10-14T01:11:23.402Z,97.55
2017-10-14T01:13:50.926Z,97.57
2017-10-14T01:16:18.462Z,98.26
2017-10-14T01:18:45.976Z,97.23
2017-10-14T01:21:13.476Z,96.38
2017-10-14T01:23:40.976Z,96.26
2017-10-14T01:26:08.488Z,97.36
2017-10-14T01:28:36.013Z,97.18
2017-10-14T01:31:03.530Z,97.44
2017-10-14T01:33:31.032Z,97.95
2017-10-14T01:35:58.545Z,97.48
2017-10-14T01:38:26.053Z,96.66
2017-10-14T01:40:53.551Z,97.32
2017-10-14T01:43:21.074Z,97.33
2017-10-14T01:45:48.596Z,97.96
2017-10-14T01:48:16.101Z,97.49
2017-10-14T01:50:43.598Z,97.27
2017-10-14T01:53:11.117Z,97.87
2017-10-14T01:55:38.613Z,98.02
2017-10-14T01:58:06.128Z,97.87
2017-10-14T02:00:33.632Z,98.73
2017-10-14T02:03:01.157Z,99.03
2017-10-14T02:05:28.666Z,98.42
2017-10-14T02:07:56.179Z,97.97
2017-10-14T02:10:23.682Z,98.11
2017-10-14T02:12:51.211Z,98.62
2017-10-14T02:15:18.740Z,98.79
2017-10-14T02:17:46.260Z,98.36
2017-10-14T02:20:13.769Z,97.81
2017-10-14T02:22:41.275Z,97.52
2017-10-14T02:25:08.790Z,98.49
2017-10-14T02:27:36.286Z,98.72
2017-10-14T02:30:03.790Z,98.53
2017-10-14T02:32:31.294Z,98.18
2017-10-14T02:34:58.804Z,98.49
2017-10-14T02:37:26.427Z,98.63
2017-10-14T02:39:53.940Z,98.22
2017-10-14T02:42:21.445Z,97.53
2017-10-14T02:44:48.941Z,97.52
2017-10-14T02:47:16.447Z,98.00
2017-10-14T02:49:43.948Z,98.48
2017-10-14T02:52:11.471Z,98.23
2017-10-14T02:54:38.977Z,97.53
2017-10-14T02:57:06.481Z,97.44
2017-10-14T02:59:33.983Z,97.80
2017-10-14T03:02:01.555Z,98.12
2017-10-14T03:04:29.110Z,98.42
2017-10-14T03:06:56.616Z,98.56
2017-10-14T03:09:24.137Z,98.57
2017-10-14T03:11:51.663Z,97.95
2017-10-14T03:14:19.179Z,97.68
2017-10-14T03:16:46.712Z,98.19
2017-10-14T03:19:14.226Z,98.70
2017-10-14T03:21:41.732Z,98.86
2017-10-14T03:24:09.240Z,99.18
2017-10-14T03:26:36.741Z,99.03
2017-10-14T03:29:04.246Z,98.89
2017-10-14T03:31:31.759Z,99.06
2017-10-14T03:33:59.267Z,99.32
2017-10-14T03:36:26.775Z,99.47
2017-10-14T03:38:54.284Z,99.24
2017-10-14T03:41:21.800Z,98.63
2017-10-14T03:43:49.296Z,98.02
2017-10-14T03:46:16.808Z,97.43
2017-10-14T03:48:44.315Z,96.26
2017-10-14T03:51:11.845Z,96.48
2017-10-14T03:53:39.350Z,96.66
2017-10-14T03:56:06.855Z,96.60
2017-10-14T03:58:34.364Z,96.62
2017-10-14T04:01:01.874Z,97.12
2017-10-14T04:03:29.377Z,97.65
2017-10-14T04:05:56.880Z,97.47
2017-10-14T04:08:24.395Z,98.15
2017-10-14T04:10:51.905Z,98.24
2017-10-14T04:13:19.416Z,98.21
2017-10-14T04:15:46.921Z,97.96
2017-10-14T04:18:14.431Z,96.70
2017-10-14T04:20:41.931Z,96.29
2017-10-14T04:23:09.447Z,95.30
2017-10-14T04:25:36.947Z,95.38
2017-10-14T04:28:04.467Z,95.18
2017-10-14T04:30:33.970Z,96.49
2017-10-14T04:33:01.750Z,96.95
2017-10-14T04:35:29.256Z,97.25
2017-10-14T04:37:56.764Z,97.23
2017-10-14T04:40:24.283Z,97.86
2017-10-14T04:42:51.796Z,98.46
2017-10-14T04:45:19.304Z,97.79
2017-10-14T04:47:46.823Z,97.18
2017-10-14T04:50:14.327Z,97.89
2017-10-14T04:52:41.834Z,97.70
2017-10-14T04:55:09.342Z,97.30
2017-10-14T04:57:36.840Z,97.72
2017-10-14T05:00:04.349Z,98.57
2017-10-14T05:02:31.874Z,98.25
2017-10-14T05:04:59.374Z,97.94
2017-10-14T05:07:26.885Z,98.46
2017-10-14T05:09:54.392Z,98.13
2017-10-14T05:12:21.887Z,97.05
2017-10-14T05:14:49.390Z,97.57
2017-10-14T05:17:16.898Z,98.16
2017-10-14T05:19:44.403Z,98.35
2017-10-14T05:22:11.922Z,98.18
2017-10-14T05:24:39.430Z,97.97
2017-10-14T05:27:06.952Z,98.78
2017-10-14T05:29:34.472Z,98.94
2017-10-14T05:32:01.974Z,98.47
2017-10-14T05:34:29.479Z,97.70
2017-10-14T05:36:56.987Z,97.51
2017-10-14T05:39:24.510Z,97.86
2017-10-14T05:41:52.012Z,98.07
2017-10-14T05:44:19.513Z,97.54
2017-10-14T05:46:47.022Z,97.86
2017-10-14T05:49:14.519Z,98.09
2017-10-14T05:51:42.036Z,98.42
2017-10-14T05:54:09.549Z,98.81
2017-10-14T05:56:37.056Z,99.09
2017-10-14T05:59:04.574Z,99.07
2017-10-14T06:01:32.091Z,99.10
2017-10-14T06:03:59.605Z,97.93
2017-10-14T06:06:27.125Z,96.75
2017-10-14T06:08:54.642Z,95.96
2017-10-14T06:11:22.184Z,97.07
2017-10-14T06:13:49.692Z,97.22
2017-10-14T06:16:17.311Z,97.36
2017-10-14T06:18:44.823Z,97.37
2017-10-14T06:21:12.325Z,96.85
2017-10-14T06:23:39.831Z,96.00
2017-10-14T06:26:07.332Z,95.98
2017-10-14T06:28:34.874Z,96.29
2017-10-14T06:31:02.385Z,95.72
2017-10-14T06:33:29.893Z,95.12
2017-10-14T06:35:57.475Z,96.22
2017-10-14T06:38:24.975Z,97.00
2017-10-14T06:40:52.488Z,97.77
2017-10-14T06:43:20.264Z,98.29
2017-10-14T06:45:47.780Z,98.12
2017-10-14T06:48:15.280Z,96.63
2017-10-14T06:50:42.797Z,96.14
2017-10-14T06:53:10.311Z,95.89
2017-10-14T06:55:37.842Z,96.67
2017-10-14T06:58:05.359Z,94.13
2017-10-14T07:00:32.842Z,93.16
2017-10-14T07:03:00.344Z,92.16
2017-10-14T07:05:27.964Z,91.96
2017-10-14T07:07:55.520Z,90.98
2017-10-14T07:10:23.039Z,90.46
2017-10-14T07:12:50.567Z,89.77
2017-10-14T07:15:18.072Z,90.21
2017-10-14T07:17:45.587Z,90.33
2017-10-14T07:20:13.106Z,91.66
2017-10-14T07:22:40.740Z,91.96
2017-10-14T07:25:08.262Z,92.00
2017-10-14T07:27:35.763Z,91.78
2017-10-14T07:30:03.286Z,91.55
2017-10-14T07:32:31.955Z,91.84
2017-10-14T07:34:59.459Z,88.21
2017-10-14T07:37:26.959Z,87.00
2017-10-14T07:39:54.537Z,86.54
2017-10-14T07:42:22.038Z,87.22
2017-10-14T07:44:49.564Z,85.20
2017-10-14T07:47:17.076Z,83.09
2017-10-14T07:49:44.588Z,83.14
2017-10-14T07:52:12.091Z,79.67
2017-10-14T07:54:39.600Z,80.15
2017-10-14T07:57:07.107Z,78.12
2017-10-14T07:59:34.619Z,77.77
2017-10-14T08:02:02.130Z,72.13
2017-10-14T08:04:29.653Z,63.61
2017-10-14T08:06:57.164Z,56.30
2017-10-14T08:09:24.680Z,56.94
2017-10-14T08:11:52.227Z,56.83
2017-10-14T08:14:19.755Z,50.43
2017-10-14T08:16:47.270Z,58.38
2017-10-14T08:19:14.789Z,55.51
2017-10-14T08:21:42.318Z,49.70
2017-10-14T08:24:09.839Z,49.58
2017-10-14T08:26:37.342Z,50.10
2017-10-14T08:29:04.874Z,52.24
2017-10-14T08:31:32.382Z,53.35
2017-10-14T08:33:59.932Z,44.93
2017-10-14T08:36:27.447Z,40.52
2017-10-14T08:38:54.952Z,40.86
2017-10-14T08:41:22.464Z,37.66
2017-10-14T08:43:49.976Z,38.20
2017-10-14T08:46:17.511Z,38.35
2017-10-14T08:48:45.028Z,38.76
2017-10-14T08:51:12.549Z,45.37
2017-10-14T08:53:40.072Z,42.62
2017-10-14T08:56:07.602Z,39.00
2017-10-14T08:58:35.112Z,40.61
2017-10-14T09:01:02.622Z,36.76
2017-10-14T09:03:30.140Z,42.67
2017-10-14T09:05:57.636Z,37.34
2017-10-14T09:08:25.158Z,34.88
2017-10-14T09:10:52.729Z,42.36
2017-10-14T09:13:20.254Z,40.12
2017-10-14T09:15:47.765Z,39.97
2017-10-14T09:18:15.312Z,40.31
2017-10-14T09:20:42.831Z,34.95
2017-10-14T09:23:10.331Z,33.89
2017-10-14T09:25:37.887Z,30.88
2017-10-14T09:28:05.419Z,35.80
2017-10-14T09:30:32.943Z,29.32
2017-10-14T09:33:00.455Z,32.07
2017-10-14T09:35:29.864Z,32.71
2017-10-14T09:37:58.445Z,37.30
2017-10-14T09:40:25.984Z,35.33
2017-10-14T09:42:53.511Z,31.29
2017-10-14T09:45:21.031Z,28.86
2017-10-14T09:47:48.570Z,36.62
2017-10-14T09:50:16.102Z,35.79
2017-10-14T09:52:43.615Z,33.18
2017-10-14T09:55:11.148Z,34.20
2017-10-14T09:57:38.939Z,30.55
2017-10-14T10:00:06.480Z,31.88
2017-10-14T10:02:34.016Z,32.68
2017-10-14T10:05:01.545Z,33.30
2017-10-14T10:07:29.073Z,32.70
2017-10-14T10:09:56.628Z,31.99
2017-10-14T10:12:24.142Z,34.73
2017-10-14T10:14:51.775Z,32.56
2017-10-14T10:17:19.284Z,35.42
2017-10-14T10:19:46.795Z,34.44
2017-10-14T10:22:14.316Z,32.30
2017-10-14T10:24:41.840Z,32.32
2017-10-14T10:27:09.377Z,33.35
2017-10-14T10:29:36.907Z,31.05
2017-10-14T10:32:04.409Z,30.72
2017-10-14T10:34:31.923Z,35.60
2017-10-14T10:36:59.422Z,32.24
2017-10-14T10:39:27.003Z,36.63
2017-10-14T10:41:54.496Z,30.87
2017-10-14T10:44:22.049Z,32.72
2017-10-14T10:46:49.560Z,31.20
2017-10-14T10:49:17.063Z,29.47
2017-10-14T10:51:44.576Z,30.09
2017-10-14T10:54:12.092Z,30.66
2017-10-14T10:56:39.629Z,35.00
2017-10-14T10:59:07.159Z,32.52
2017-10-14T11:01:34.680Z,33.31
2017-10-14T11:04:02.227Z,34.56
2017-10-14T11:06:29.723Z,34.09
2017-10-14T11:08:57.243Z,34.80
2017-10-14T11:11:24.748Z,39.82
2017-10-14T11:13:52.251Z,35.49
2017-10-14T11:16:19.888Z,31.83
2017-10-14T11:18:47.405Z,33.25
2017-10-14T11:21:14.930Z,34.96
2017-10-14T11:23:42.439Z,33.98
2017-10-14T11:26:09.964Z,34.30
2017-10-14T11:28:37.473Z,34.28
2017-10-14T11:31:05.011Z,36.56
2017-10-14T11:33:32.626Z,37.31
2017-10-14T11:36:00.157Z,36.38
2017-10-14T11:38:27.699Z,36.62
2017-10-14T11:40:55.220Z,37.17
2017-10-14T11:43:22.736Z,38.61
2017-10-14T11:45:50.250Z,38.10
2017-10-14T11:48:17.779Z,37.82
2017-10-14T11:50:45.309Z,37.63
2017-10-14T11:53:12.833Z,37.12
2017-10-14T11:55:40.343Z,36.23
2017-10-14T11:58:07.843Z,37.31
2017-10-14T12:00:35.387Z,37.84
2017-10-14T12:03:02.907Z,37.46
2017-10-14T12:05:30.419Z,38.10
2017-10-14T12:07:57.963Z,38.85
2017-10-14T12:10:25.494Z,36.99
2017-10-14T12:12:53.011Z,37.01
2017-10-14T12:15:20.519Z,36.87
2017-10-14T12:17:48.049Z,38.17
2017-10-14T12:20:15.592Z,37.50
2017-10-14T12:22:43.107Z,36.37
2017-10-14T12:25:10.688Z,35.43
2017-10-14T12:27:38.190Z,35.31
2017-10-14T12:30:05.700Z,35.06
2017-10-14T12:32:33.204Z,33.42
2017-10-14T12:35:00.725Z,31.88
2017-10-14T12:37:28.242Z,33.96
2017-10-14T12:39:55.750Z,31.49
2017-10-14T12:42:23.264Z,31.19
2017-10-14T12:44:50.846Z,31.63
2017-10-14T12:47:18.364Z,30.71
2017-10-14T12:49:45.894Z,32.41
2017-10-14T12:52:13.424Z,32.80
2017-10-14T12:54:40.957Z,33.10
2017-10-14T12:57:08.511Z,29.22
2017-10-14T12:59:36.015Z,29.93
2017-10-14T13:02:03.587Z,34.31
2017-10-14T13:04:31.106Z,33.26
2017-10-14T13:06:58.620Z,31.27
2017-10-14T13:09:26.112Z,31.25
2017-10-14T13:11:53.635Z,33.80
2017-10-14T13:14:21.160Z,37.39
2017-10-14T13:16:48.694Z,38.07
2017-10-14T13:19:16.284Z,37.32
2017-10-14T13:21:43.807Z,35.86
2017-10-14T13:24:11.327Z,37.60
2017-10-14T13:26:38.831Z,37.31
2017-10-14T13:29:06.328Z,36.45
2017-10-14T13:31:33.833Z,35.56
2017-10-14T13:34:01.348Z,34.55
2017-10-14T13:36:28.862Z,33.85
2017-10-14T13:38:56.434Z,37.49
2017-10-14T13:41:23.930Z,38.38
2017-10-14T13:43:51.459Z,37.03
2017-10-14T13:46:18.968Z,32.33
2017-10-14T13:48:46.488Z,35.33
2017-10-14T13:51:14.024Z,36.52
2017-10-14T13:53:41.547Z,33.96
2017-10-14T13:56:09.055Z,32.56
2017-10-14T13:58:36.567Z,33.00
2017-10-14T14:01:04.108Z,32.44
2017-10-14T14:03:31.635Z,33.14
2017-10-14T14:05:59.151Z,33.10
2017-10-14T14:08:26.648Z,34.36
2017-10-14T14:10:54.150Z,33.52
2017-10-14T14:13:21.703Z,35.60
2017-10-14T14:15:49.256Z,36.53
2017-10-14T14:18:16.776Z,39.11
2017-10-14T14:20:44.288Z,39.82
2017-10-14T14:23:11.816Z,41.77
2017-10-14T14:25:39.354Z,44.77
2017-10-14T14:28:06.880Z,46.98
2017-10-14T14:30:34.477Z,48.83
2017-10-14T14:33:02.005Z,50.87
2017-10-14T14:35:29.516Z,51.47
2017-10-14T14:37:57.051Z,52.12
2017-10-14T14:40:24.559Z,53.01
2017-10-14T14:42:52.094Z,53.34
2017-10-14T14:45:19.623Z,54.08
2017-10-14T14:47:47.135Z,54.59
2017-10-14T14:50:14.649Z,54.70
2017-10-14T14:52:42.154Z,55.45
2017-10-14T14:55:09.656Z,55.21
2017-10-14T14:57:37.146Z,60.21
2017-10-14T15:00:04.669Z,57.50
2017-10-14T15:02:32.195Z,57.40
2017-10-14T15:04:59.733Z,60.38
2017-10-14T15:07:27.291Z,63.64
2017-10-14T15:09:54.816Z,64.79
2017-10-14T15:12:22.339Z,65.85
2017-10-14T15:14:49.860Z,63.46
2017-10-14T15:17:17.387Z,64.91
2017-10-14T15:19:44.900Z,66.25
2017-10-14T15:22:12.433Z,68.16
2017-10-14T15:24:39.943Z,65.94
2017-10-14T15:27:07.473Z,69.33
2017-10-14T15:29:34.985Z,70.46
2017-10-14T15:32:02.501Z,70.23
2017-10-14T15:34:30.174Z,72.49
2017-10-14T15:36:57.683Z,71.01
2017-10-14T15:39:25.212Z,72.40
2017-10-14T15:41:54.352Z,71.98
2017-10-14T15:44:23.003Z,72.13
2017-10-14T15:46:50.540Z,72.88
2017-10-14T15:49:18.060Z,73.12
2017-10-14T15:51:45.574Z,73.30
2017-10-14T15:54:13.091Z,74.21
2017-10-14T15:56:40.608Z,74.85
2017-10-14T15:59:08.126Z,75.36
2017-10-14T16:01:35.793Z,76.33
2017-10-14T16:04:03.324Z,77.77
2017-10-14T16:06:30.846Z,77.96
2017-10-14T16:08:58.378Z,78.22
2017-10-14T16:11:25.917Z,77.22
2017-10-14T16:13:53.419Z,78.08
2017-10-14T16:16:20.931Z,80.18
2017-10-14T16:18:48.450Z,80.16
2017-10-14T16:21:15.965Z,80.80
2017-10-14T16:23:43.490Z,81.85
2017-10-14T16:26:10.989Z,82.49
2017-10-14T16:28:38.513Z,81.83
2017-10-14T16:31:06.037Z,83.12
2017-10-14T16:33:33.584Z,83.06
2017-10-14T16:36:01.084Z,83.37
2017-10-14T16:38:28.627Z,83.85
2017-10-14T16:40:56.135Z,83.68
2017-10-14T16:43:23.664Z,84.38
2017-10-14T16:45:51.174Z,85.51
2017-10-14T16:48:18.694Z,85.14
2017-10-14T16:50:46.225Z,84.20
2017-10-14T16:53:13.775Z,85.93
2017-10-14T16:55:41.322Z,87.66
2017-10-14T16:58:08.864Z,87.98
2017-10-14T17:00:36.396Z,87.99
2017-10-14T17:03:03.931Z,87.78
2017-10-14T17:05:31.433Z,89.08
2017-10-14T17:07:58.937Z,89.25
2017-10-14T17:10:26.442Z,90.39
2017-10-14T17:12:53.980Z,90.62
2017-10-14T17:15:21.506Z,89.70
2017-10-14T17:17:49.034Z,90.91
2017-10-14T17:20:16.558Z,90.35
2017-10-14T17:22:44.094Z,90.81
2017-10-14T17:25:11.620Z,90.77
2017-10-14T17:27:39.141Z,91.53
2017-10-14T17:30:06.674Z,92.83
2017-10-14T17:32:34.203Z,92.35
2017-10-14T17:35:01.720Z,92.86
2017-10-14T17:37:29.229Z,92.71
2017-10-14T17:39:56.737Z,92.79
2017-10-14T17:42:24.285Z,93.24
2017-10-14T17:44:51.792Z,92.72
2017-10-14T17:47:19.303Z,92.88
2017-10-14T17:49:46.826Z,91.83
2017-10-14T17:52:14.336Z,93.06
2017-10-14T17:54:42.058Z,92.73
2017-10-14T17:57:09.597Z,92.09
2017-10-14T17:59:37.121Z,91.92
2017-10-14T18:02:04.648Z,93.54
2017-10-14T18:04:32.180Z,94.86
2017-10-14T18:06:59.691Z,94.67
2017-10-14T18:09:27.229Z,93.77
2017-10-14T18:11:54.772Z,92.81
2017-10-14T18:14:22.319Z,93.18
2017-10-14T18:16:49.846Z,93.60
2017-10-14T18:19:17.399Z,92.74
2017-10-14T18:21:44.912Z,92.60
2017-10-14T18:24:12.434Z,92.97
2017-10-14T18:26:40.059Z,93.30
2017-10-14T18:29:07.675Z,92.78
2017-10-14T18:31:35.211Z,93.55
2017-10-14T18:34:02.716Z,93.42
2017-10-14T18:36:30.232Z,94.68
2017-10-14T18:38:57.751Z,93.14
2017-10-14T18:41:25.322Z,92.33
2017-10-14T18:43:52.870Z,92.81
2017-10-14T18:46:20.398Z,93.23
2017-10-14T18:48:47.916Z,94.33
2017-10-14T18:51:15.427Z,94.40
2017-10-14T18:53:42.966Z,93.88
2017-10-14T18:56:10.512Z,93.60
2017-10-14T18:58:38.048Z,93.88
2017-10-14T19:01:05.562Z,94.38
2017-10-14T19:03:33.085Z,93.76
2017-10-14T19:06:00.628Z,94.80
2017-10-14T19:08:28.141Z,94.87
2017-10-14T19:10:55.663Z,94.89
2017-10-14T19:13:23.164Z,93.05
2017-10-14T19:15:50.688Z,94.12
2017-10-14T19:18:18.252Z,93.60
2017-10-14T19:20:45.837Z,94.76
2017-10-14T19:23:13.335Z,94.34
2017-10-14T19:25:40.852Z,93.38
2017-10-14T19:28:08.368Z,94.35
2017-10-14T19:30:35.909Z,94.42
2017-10-14T19:33:03.415Z,94.46
2017-10-14T19:35:30.923Z,94.41
2017-10-14T19:37:58.443Z,94.55
2017-10-14T19:40:26.010Z,94.79
2017-10-14T19:42:53.546Z,95.81
2017-10-14T19:45:21.092Z,95.86
2017-10-14T19:47:48.631Z,96.03
2017-10-14T19:50:16.160Z,96.08
2017-10-14T19:52:43.735Z,95.68
2017-10-14T19:55:11.266Z,94.47
2017-10-14T19:57:38.835Z,94.80
2017-10-14T20:00:06.369Z,93.51
2017-10-14T20:02:33.901Z,94.13
2017-10-14T20:05:01.451Z,94.53
2017-10-14T20:07:28.978Z,95.86
2017-10-14T20:09:56.497Z,96.20
2017-10-14T20:12:24.097Z,95.83
2017-10-14T20:14:51.653Z,96.06
2017-10-14T20:17:19.163Z,96.15
2017-10-14T20:19:46.726Z,96.19
2017-10-14T20:22:14.226Z,95.15
2017-10-14T20:24:41.739Z,95.48
2017-10-14T20:27:09.284Z,95.46
2017-10-14T20:29:36.807Z,95.15
2017-10-14T20:32:04.380Z,95.96
2017-10-14T20:34:31.941Z,95.72
2017-10-14T20:36:59.459Z,95.17
2017-10-14T20:39:26.974Z,95.23
2017-10-14T20:41:54.624Z,94.21
2017-10-14T20:44:22.233Z,93.92
2017-10-14T20:46:49.745Z,93.63
2017-10-14T20:49:17.278Z,93.15
2017-10-14T20:51:44.803Z,94.61
2017-10-14T20:54:12.320Z,95.81
2017-10-14T20:56:39.834Z,96.73
2017-10-14T20:59:07.357Z,96.84
2017-10-14T21:01:34.896Z,96.09
2017-10-14T21:04:02.491Z,96.37
2017-10-14T21:06:30.007Z,94.19
2017-10-14T21:08:57.562Z,93.64
2017-10-14T21:11:25.086Z,94.67
2017-10-14T21:13:52.587Z,94.41
2017-10-14T21:16:20.113Z,94.61
2017-10-14T21:18:47.767Z,95.19
2017-10-14T21:21:15.292Z,96.31
2017-10-14T21:23:42.796Z,96.84
2017-10-14T21:26:10.324Z,96.91
2017-10-14T21:28:37.840Z,96.46
2017-10-14T21:31:05.363Z,96.84
2017-10-14T21:33:32.880Z,97.01
2017-10-14T21:36:00.423Z,97.11
2017-10-14T21:38:27.954Z,96.26
2017-10-14T21:40:55.448Z,96.06
2017-10-14T21:43:22.940Z,95.33
2017-10-14T21:45:50.546Z,95.09
2017-10-14T21:48:18.051Z,94.92
2017-10-14T21:50:45.569Z,94.38
2017-10-14T21:53:13.064Z,94.47
2017-10-14T21:55:40.603Z,93.80
2017-10-14T21:58:08.101Z,95.11
2017-10-14T22:00:35.688Z,96.82
2017-10-14T22:03:03.209Z,96.30
2017-10-14T22:05:30.722Z,95.66
2017-10-14T22:07:58.241Z,95.62
2017-10-14T22:10:25.760Z,95.34
2017-10-14T22:12:53.265Z,96.12
2017-10-14T22:15:20.780Z,96.20
2017-10-14T22:17:48.291Z,96.38
2017-10-14T22:20:15.795Z,95.60
2017-10-14T22:22:43.332Z,95.73
2017-10-14T22:25:10.856Z,96.66
2017-10-14T22:27:38.385Z,96.90
2017-10-14T22:30:05.890Z,96.88
2017-10-14T22:32:33.441Z,96.31
2017-10-14T22:35:00.951Z,96.47
2017-10-14T22:37:28.471Z,96.10
2017-10-14T22:39:55.978Z,94.84
2017-10-14T22:42:23.505Z,95.76
2017-10-14T22:44:51.005Z,96.27
2017-10-14T22:47:18.522Z,97.16
2017-10-14T22:49:46.024Z,96.90
2017-10-14T22:52:13.531Z,97.26
2017-10-14T22:54:41.044Z,97.54
2017-10-14T22:57:08.575Z,97.27
2017-10-14T22:59:36.092Z,97.48
2017-10-14T23:02:03.641Z,97.35
2017-10-14T23:04:31.151Z,97.75
2017-10-14T23:06:58.666Z,97.89
2017-10-14T23:09:26.168Z,98.06
2017-10-14T23:11:53.672Z,97.44
2017-10-14T23:14:21.208Z,97.60
2017-10-14T23:16:48.719Z,97.66
2017-10-14T23:19:16.231Z,97.80
2017-10-14T23:21:43.897Z,98.16
2017-10-14T23:24:11.431Z,98.09
2017-10-14T23:26:38.957Z,97.66
2017-10-14T23:29:06.480Z,97.02
2017-10-14T23:31:34.003Z,96.90
2017-10-14T23:34:01.510Z,97.28
2017-10-14T23:36:29.034Z,97.68
2017-10-14T23:38:56.550Z,96.72
2017-10-14T23:41:24.060Z,96.20
2017-10-14T23:43:51.573Z,97.28
2017-10-14T23:46:19.098Z,97.62
2017-10-14T23:48:46.607Z,96.76
2017-10-14T23:51:14.099Z,96.54
2017-10-14T23:53:41.597Z,96.77
2017-10-14T23:56:09.110Z,97.13
2017-10-14T23:58:36.631Z,96.46
